TimeMDT,TemperatureF,Dew PointF,Humidity,Sea Level PressureIn,VisibilityMPH,Wind Direction,Wind SpeedMPH,Gust SpeedMPH,PrecipitationIn,Events,Conditions,WindDirDegrees,DateUTC
12:00 AM,58.1,51.3,78,29.80,-9999.0,NNW,3.5,-,N/A,,Unknown,340,2013-09-09 06:00:00
1:00 AM,55.6,49.8,81,29.79,-9999.0,NW,1.2,-,N/A,,Unknown,320,2013-09-09 07:00:00
2:00 AM,54.5,51.6,90,29.79,-9999.0,SE,2.3,-,N/A,,Unknown,140,2013-09-09 08:00:00
3:00 AM,53.1,50.2,90,29.78,-9999.0,South,2.3,-,N/A,,Unknown,180,2013-09-09 09:00:00
4:00 AM,52.0,50.0,93,29.79,-9999.0,Calm,Calm,-,N/A,,Unknown,0,2013-09-09 10:00:00
5:00 AM,50.5,48.7,94,29.80,-9999.0,Calm,Calm,-,N/A,,Unknown,0,2013-09-09 11:00:00
6:00 AM,49,48,95,29.83,,Calm,Calm,,,,,,2013-09-09 12:00:00
6:00 AM,49.5,48.0,95,29.83,-9999.0,Calm,Calm,-,N/A,,Unknown,0,2013-09-09 12:00:00
7:00 AM,48.4,46.9,95,29.85,-9999.0,North,1.2,-,N/A,,Unknown,350,2013-09-09 13:00:00
8:00 AM,50.7,48.7,93,29.87,-9999.0,Calm,Calm,-,N/A,,Unknown,0,2013-09-09 14:00:00
9:00 AM,56.7,50.7,80,29.87,-9999.0,East,1.2,-,N/A,,Unknown,80,2013-09-09 15:00:00
10:00 AM,64.2,50.0,60,29.87,-9999.0,NW,4.6,-,N/A,,Unknown,320,2013-09-09 16:00:00
11:00 AM,72.7,48.2,42,29.85,-9999.0,WNW,6.9,-,N/A,,Unknown,290,2013-09-09 17:00:00
12:00 PM,76,44,21,29.85,,North,10.4,,,,,350,2013-09-09 18:00:00
12:00 PM,75.9,44.1,32,29.85,-9999.0,North,10.4,-,N/A,,Unknown,350,2013-09-09 18:00:00
1:00 PM,78.6,41.2,26,29.84,-9999.0,North,10.4,-,N/A,,Unknown,360,2013-09-09 19:00:00
2:00 PM,80.4,40.3,24,29.83,-9999.0,WNW,6.9,-,N/A,,Unknown,300,2013-09-09 20:00:00
3:00 PM,81.7,43.2,26,29.82,-9999.0,NNW,8.1,-,N/A,,Unknown,330,2013-09-09 21:00:00
4:00 PM,82.2,42.8,25,29.81,-9999.0,NNW,6.9,-,N/A,,Unknown,330,2013-09-09 22:00:00
5:00 PM,79.2,42.4,27,29.83,-9999.0,North,8.1,-,N/A,,Unknown,10,2013-09-09 23:00:00
6:00 PM,79,44,19,29.83,,NNE,5.8,,,,,20,2013-09-10 00:00:00
6:00 PM,78.8,43.9,29,29.83,-9999.0,NNE,5.8,-,N/A,,Unknown,20,2013-09-10 00:00:00
7:00 PM,77.4,45.9,33,29.84,-9999.0,North,5.8,-,N/A,,Unknown,350,2013-09-10 01:00:00
8:00 PM,71.1,45.1,39,29.86,-9999.0,NE,8.1,-,N/A,,Unknown,40,2013-09-10 02:00:00
9:00 PM,66.4,44.4,45,29.89,-9999.0,NE,8.1,-,N/A,,Unknown,40,2013-09-10 03:00:00
10:00 PM,61.7,44.1,52,29.90,-9999.0,NW,3.5,-,N/A,,Unknown,310,2013-09-10 04:00:00
11:00 PM,58.8,48.0,67,29.91,-9999.0,NNE,1.2,-,N/A,,Unknown,30,2013-09-10 05:00:00